Time;durP1;ratioP1;P1;durP2;ratioP2;P2;SDS_P1;SDS_P2;PMS_P1;PMS_P2;Temp;Humidity;BMP_temperature;BMP_pressure;BME280_temperature;BME280_humidity;BME280_pressure;Samples;Min_cycle;Max_cycle;Signal;HPM_P1;HPM_P2
2023/08/05 00:01:06;;;;;;;14.18;2.60;;;28.70;99.90;;;;;;4995451;28;20154;-51
2023/08/05 00:03:32;;;;;;;16.45;2.83;;;28.70;99.90;;;;;;4995046;28;21050;-50
2023/08/05 00:05:58;;;;;;;15.40;2.95;;;28.70;99.90;;;;;;4995339;28;20490;-52
2023/08/05 00:08:24;;;;;;;14.73;3.00;;;28.70;99.90;;;;;;5010333;28;20031;-52
2023/08/05 00:10:50;;;;;;;10.35;2.40;;;28.70;99.90;;;;;;4995037;28;20018;-51
2023/08/05 00:13:16;;;;;;;16.40;3.03;;;28.60;99.90;;;;;;4995163;28;20026;-52
2023/08/05 00:15:42;;;;;;;17.70;2.90;;;28.60;99.90;;;;;;4995086;28;20474;-52
2023/08/05 00:18:09;;;;;;;11.90;2.65;;;28.60;99.90;;;;;;4995121;28;20038;-51
2023/08/05 00:20:34;;;;;;;12.43;2.78;;;28.60;99.90;;;;;;4994980;28;20503;-51
2023/08/05 00:23:00;;;;;;;16.23;2.72;;;28.50;99.90;;;;;;4994892;28;20038;-52
2023/08/05 00:25:26;;;;;;;28.65;3.67;;;28.50;99.90;;;;;;4994903;28;20382;-51
2023/08/05 00:27:51;;;;;;;11.52;2.25;;;28.50;99.90;;;;;;4994848;28;20535;-54
2023/08/05 00:30:17;;;;;;;18.23;3.08;;;28.40;99.90;;;;;;4994950;28;20014;-54
2023/08/05 00:32:43;;;;;;;16.02;3.25;;;28.40;99.90;;;;;;4994888;28;20019;-51
2023/08/05 00:35:09;;;;;;;10.07;2.20;;;28.40;99.90;;;;;;4995042;28;20355;-52
2023/08/05 00:37:36;;;;;;;8.98;2.03;;;28.40;99.90;;;;;;4992019;28;20024;-51
2023/08/05 00:40:04;;;;;;;17.63;3.42;;;28.40;99.90;;;;;;4994424;28;20050;-51
2023/08/05 00:42:30;;;;;;;14.00;2.53;;;28.40;99.90;;;;;;4992267;28;20101;-51
2023/08/05 00:44:56;;;;;;;21.10;3.78;;;28.40;99.90;;;;;;4978435;28;20390;-51
2023/08/05 00:47:21;;;;;;;20.15;3.35;;;28.40;99.90;;;;;;4993117;28;20186;-50
2023/08/05 00:49:50;;;;;;;9.70;3.35;;;28.40;99.90;;;;;;4976373;28;20027;-51
2023/08/05 00:52:18;;;;;;;8.15;2.25;;;28.50;99.90;;;;;;4992339;28;20088;-51
2023/08/05 00:54:44;;;;;;;14.73;3.55;;;28.50;99.90;;;;;;4994512;28;20053;-51
2023/08/05 00:57:12;;;;;;;9.20;2.67;;;28.50;99.90;;;;;;4994368;28;20022;-51
2023/08/05 00:59:37;;;;;;;11.93;2.97;;;28.60;99.90;;;;;;4994126;28;20033;-51
2023/08/05 01:02:03;;;;;;;20.27;2.80;;;28.50;99.90;;;;;;5011656;23;20058;-45
2023/08/05 01:04:30;;;;;;;10.82;3.15;;;28.60;99.90;;;;;;5014074;28;20025;-45
2023/08/05 01:06:57;;;;;;;11.43;2.30;;;28.60;99.90;;;;;;5014118;28;20133;-45
2023/08/05 01:09:23;;;;;;;11.20;2.28;;;28.60;99.90;;;;;;5014183;28;20066;-45
2023/08/05 01:11:48;;;;;;;12.57;2.38;;;28.60;99.90;;;;;;5010930;28;20351;-45
2023/08/05 01:14:14;;;;;;;15.15;3.65;;;28.60;99.90;;;;;;4986890;28;20396;-45
2023/08/05 01:16:40;;;;;;;11.50;2.75;;;28.70;99.90;;;;;;5010615;28;20025;-45
2023/08/05 01:19:20;;;;;;;12.48;2.28;;;28.60;99.90;;;;;;5029237;28;20022;-45
2023/08/05 01:21:55;;;;;;;20.90;2.97;;;28.70;99.90;;;;;;5014110;28;20022;-45
2023/08/05 01:24:31;;;;;;;10.05;2.60;;;28.70;99.90;;;;;;5013931;28;20067;-45
2023/08/05 01:26:58;;;;;;;14.50;3.35;;;28.70;99.90;;;;;;5013696;28;20466;-45
2023/08/05 01:29:24;;;;;;;15.95;3.55;;;28.70;99.90;;;;;;5013487;28;20039;-45
2023/08/05 01:31:51;;;;;;;13.55;2.65;;;28.70;99.90;;;;;;5013622;28;20022;-45
2023/08/05 01:34:17;;;;;;;20.08;3.13;;;28.70;99.90;;;;;;5013504;28;20030;-45
2023/08/05 01:36:43;;;;;;;11.93;2.75;;;28.70;99.90;;;;;;5029224;28;20565;-45
2023/08/05 01:39:08;;;;;;;11.10;3.20;;;28.70;99.90;;;;;;5013324;28;20029;-45
2023/08/05 01:41:34;;;;;;;13.30;2.35;;;28.70;99.90;;;;;;5012298;28;20034;-45
2023/08/05 01:44:00;;;;;;;13.82;2.90;;;28.70;99.90;;;;;;5013344;28;20033;-45
2023/08/05 01:46:26;;;;;;;12.00;2.28;;;28.70;99.90;;;;;;5013985;28;20018;-45
2023/08/05 01:48:51;;;;;;;12.43;2.85;;;28.70;99.90;;;;;;5012953;28;20045;-46
2023/08/05 01:51:17;;;;;;;10.98;3.03;;;28.70;99.90;;;;;;5012656;28;20033;-45
2023/08/05 01:53:43;;;;;;;13.68;2.72;;;28.70;99.90;;;;;;5013638;28;20097;-45
2023/08/05 01:56:09;;;;;;;14.18;2.72;;;28.70;99.90;;;;;;5013524;28;20061;-46
2023/08/05 01:58:34;;;;;;;16.45;3.25;;;28.70;99.90;;;;;;5013488;28;20029;-45
2023/08/05 02:01:00;;;;;;;17.67;2.55;;;28.70;99.90;;;;;;5013778;28;20103;-45
2023/08/05 02:03:26;;;;;;;17.80;2.95;;;28.70;99.90;;;;;;5011066;28;20042;-45
2023/08/05 02:05:52;;;;;;;11.10;2.70;;;28.70;99.90;;;;;;5013153;28;20029;-45
2023/08/05 02:08:17;;;;;;;15.75;3.10;;;28.70;99.90;;;;;;5013549;28;20022;-45
2023/08/05 02:10:43;;;;;;;16.85;2.92;;;28.70;99.90;;;;;;5013269;28;20030;-46
2023/08/05 02:13:09;;;;;;;15.30;2.13;;;28.70;99.90;;;;;;5013142;28;20109;-46
2023/08/05 02:15:35;;;;;;;12.52;2.13;;;28.60;99.90;;;;;;5012257;28;20032;-45
2023/08/05 02:18:02;;;;;;;13.45;2.42;;;28.60;99.90;;;;;;5012928;28;20030;-46
2023/08/05 02:20:27;;;;;;;8.98;2.17;;;28.60;99.90;;;;;;5013119;28;20026;-45
2023/08/05 02:22:53;;;;;;;11.15;2.33;;;28.60;99.90;;;;;;5012888;28;20546;-45
2023/08/05 02:25:19;;;;;;;17.10;2.90;;;28.60;99.90;;;;;;5013185;28;20026;-46
2023/08/05 02:27:45;;;;;;;14.90;3.38;;;28.60;99.90;;;;;;5013047;28;20167;-45
2023/08/05 02:30:10;;;;;;;13.88;2.97;;;28.60;99.90;;;;;;5012750;28;20064;-45
2023/08/05 02:32:36;;;;;;;11.77;2.85;;;28.60;99.90;;;;;;5012857;28;20033;-45
2023/08/05 02:35:02;;;;;;;10.88;3.47;;;28.60;99.90;;;;;;5012782;28;20023;-45
2023/08/05 02:37:28;;;;;;;14.30;3.00;;;28.60;99.90;;;;;;5012864;28;20041;-45
2023/08/05 02:39:53;;;;;;;17.55;2.60;;;28.60;99.90;;;;;;5011531;28;20022;-45
2023/08/05 02:42:19;;;;;;;13.43;2.58;;;28.60;99.90;;;;;;5012782;28;20045;-45
2023/08/05 02:44:45;;;;;;;13.10;2.40;;;28.60;99.90;;;;;;5012467;28;20057;-45
2023/08/05 02:47:11;;;;;;;11.00;2.53;;;28.50;99.90;;;;;;5012522;28;20030;-45
2023/08/05 02:49:36;;;;;;;15.10;2.25;;;28.50;99.90;;;;;;5012515;28;20026;-45
2023/08/05 02:52:02;;;;;;;14.35;2.40;;;28.50;99.90;;;;;;5012473;28;20034;-45
2023/08/05 02:54:28;;;;;;;11.68;2.45;;;28.50;99.90;;;;;;5012348;28;20029;-45
2023/08/05 02:56:54;;;;;;;14.50;3.28;;;28.50;99.90;;;;;;5012448;28;20037;-45
2023/08/05 02:59:20;;;;;;;13.90;2.63;;;28.50;99.90;;;;;;5012513;28;20029;-45
2023/08/05 03:01:45;;;;;;;11.30;2.20;;;28.50;99.90;;;;;;5013584;23;20058;-50
2023/08/05 03:04:11;;;;;;;16.52;2.92;;;28.50;99.90;;;;;;4991136;28;20161;-51
2023/08/05 03:06:37;;;;;;;14.45;2.47;;;28.50;99.90;;;;;;4992597;28;20030;-51
2023/08/05 03:09:02;;;;;;;7.47;2.28;;;28.50;99.90;;;;;;4992563;28;20049;-51
2023/08/05 03:11:30;;;;;;;11.77;2.55;;;28.50;99.90;;;;;;4992513;28;20044;-51
2023/08/05 03:13:56;;;;;;;18.42;2.00;;;28.50;99.90;;;;;;4992181;28;20023;-51
2023/08/05 03:16:22;;;;;;;13.52;2.38;;;28.50;99.90;;;;;;4992695;28;20022;-51
2023/08/05 03:18:48;;;;;;;17.63;2.15;;;28.40;99.90;;;;;;4992331;28;20058;-51
2023/08/05 03:21:14;;;;;;;10.32;2.13;;;28.40;99.90;;;;;;4992558;28;20088;-51
2023/08/05 03:23:39;;;;;;;9.70;2.28;;;28.40;99.90;;;;;;4992341;28;20478;-51
2023/08/05 03:26:05;;;;;;;15.40;2.65;;;28.40;99.90;;;;;;4992216;28;20030;-51
2023/08/05 03:28:31;;;;;;;11.75;2.28;;;28.40;99.90;;;;;;4992345;28;20042;-51
2023/08/05 03:30:57;;;;;;;14.60;2.65;;;28.40;99.90;;;;;;4992438;28;20084;-51
2023/08/05 03:33:23;;;;;;;16.40;2.38;;;28.40;99.90;;;;;;4992521;28;20478;-51
2023/08/05 03:35:49;;;;;;;15.18;2.15;;;28.40;99.90;;;;;;4992278;28;20030;-51
2023/08/05 03:38:15;;;;;;;11.85;3.03;;;28.40;99.90;;;;;;4992269;28;20441;-51
2023/08/05 03:40:41;;;;;;;10.52;2.00;;;28.40;99.90;;;;;;4992325;28;20124;-51
2023/08/05 03:43:07;;;;;;;11.50;2.65;;;28.40;99.90;;;;;;4991938;28;20078;-52
2023/08/05 03:45:32;;;;;;;13.50;2.88;;;28.30;99.90;;;;;;4992104;28;20037;-51
2023/08/05 03:47:58;;;;;;;15.65;2.20;;;28.40;99.90;;;;;;4992123;28;20037;-51
2023/08/05 03:50:28;;;;;;;13.63;3.20;;;28.30;99.90;;;;;;4990101;28;20030;-50
2023/08/05 03:52:54;;;;;;;19.27;3.38;;;28.40;99.90;;;;;;4991071;28;20058;-51
2023/08/05 03:55:21;;;;;;;16.00;2.97;;;28.30;99.90;;;;;;4990943;28;20109;-51
2023/08/05 03:57:47;;;;;;;15.60;2.67;;;28.30;99.90;;;;;;4992037;28;20036;-51
2023/08/05 04:00:14;;;;;;;30.15;4.78;;;28.30;99.90;;;;;;4990178;28;20034;-50
2023/08/05 04:02:41;;;;;;;20.13;3.38;;;28.30;99.90;;;;;;4991931;28;20054;-51
2023/08/05 04:05:08;;;;;;;16.60;2.72;;;28.30;99.90;;;;;;4992054;28;20033;-51
2023/08/05 04:07:34;;;;;;;7.93;1.65;;;28.30;99.90;;;;;;4992096;28;20105;-51
2023/08/05 04:10:00;;;;;;;18.27;2.20;;;28.30;99.90;;;;;;4991932;28;20030;-51
2023/08/05 04:12:26;;;;;;;16.33;2.83;;;28.30;99.90;;;;;;4992101;28;20026;-51
2023/08/05 04:14:53;;;;;;;14.48;2.60;;;28.30;99.90;;;;;;4992131;28;20018;-51
2023/08/05 04:17:19;;;;;;;14.93;2.07;;;28.30;99.90;;;;;;4991804;28;20049;-50
2023/08/05 04:19:46;;;;;;;13.02;2.63;;;28.30;99.90;;;;;;4990169;28;20023;-50
2023/08/05 04:22:12;;;;;;;;;;;28.30;99.90;;;;;;4991823;28;20023;-50
2023/08/05 04:24:41;;;;;;;10.20;2.22;;;28.30;99.90;;;;;;4990446;28;20342;-51
2023/08/05 04:27:08;;;;;;;9.93;2.20;;;28.30;99.90;;;;;;4992659;28;20034;-50
2023/08/05 04:29:34;;;;;;;10.30;2.45;;;28.30;99.90;;;;;;4995172;28;20477;-50
2023/08/05 04:32:00;;;;;;;8.10;2.15;;;28.30;99.90;;;;;;4993563;28;20030;-50
2023/08/05 04:34:25;;;;;;;8.63;2.15;;;28.20;99.90;;;;;;4995136;28;20497;-50
2023/08/05 04:36:52;;;;;;;9.35;1.90;;;28.20;99.90;;;;;;5008539;28;20038;-50
2023/08/05 04:39:19;;;;;;;11.57;2.35;;;28.20;99.90;;;;;;4993653;28;20026;-50
2023/08/05 04:41:45;;;;;;;15.95;2.55;;;28.30;99.90;;;;;;4993403;28;20126;-50
2023/08/05 04:44:11;;;;;;;8.13;2.77;;;28.20;99.90;;;;;;4991268;28;20026;-50
2023/08/05 04:46:37;;;;;;;12.38;2.03;;;28.20;99.90;;;;;;4992500;28;20057;-50
2023/08/05 04:49:09;;;;;;;11.25;2.63;;;28.20;99.90;;;;;;4992819;28;20062;-50
2023/08/05 04:51:35;;;;;;;13.30;2.13;;;28.20;99.90;;;;;;4994878;28;20073;-51
2023/08/05 04:54:02;;;;;;;12.65;2.35;;;28.20;99.90;;;;;;4994753;28;20386;-51
2023/08/05 04:56:27;;;;;;;11.88;2.60;;;28.20;99.90;;;;;;4995020;28;20034;-51
2023/08/05 04:58:53;;;;;;;15.90;2.90;;;28.20;99.90;;;;;;4994827;28;20026;-51
2023/08/05 05:01:19;;;;;;;12.82;2.40;;;28.20;99.90;;;;;;4993251;28;20082;-51
2023/08/05 05:03:46;;;;;;;20.00;2.95;;;28.20;99.90;;;;;;4993709;28;20053;-51
2023/08/05 05:06:12;;;;;;;13.50;2.33;;;28.10;99.90;;;;;;5009440;28;20492;-51
2023/08/05 05:08:38;;;;;;;12.68;2.00;;;28.20;99.90;;;;;;4994496;28;20113;-51
2023/08/05 05:11:04;;;;;;;14.10;2.75;;;28.10;99.90;;;;;;4994487;28;20102;-51
2023/08/05 05:13:30;;;;;;;21.73;3.08;;;28.10;99.90;;;;;;4994708;28;20091;-51
2023/08/05 05:15:55;;;;;;;13.13;2.30;;;28.20;99.90;;;;;;4994689;28;20023;-51
2023/08/05 05:18:21;;;;;;;10.23;2.42;;;28.10;99.90;;;;;;4994392;28;20034;-51
2023/08/05 05:20:50;;;;;;;8.52;1.88;;;28.10;99.90;;;;;;4994430;28;20023;-51
2023/08/05 05:23:16;;;;;;;10.52;2.50;;;28.10;99.90;;;;;;4994356;28;20034;-50
2023/08/05 05:25:42;;;;;;;11.85;1.95;;;28.10;99.90;;;;;;5009241;28;20379;-51
2023/08/05 05:28:08;;;;;;;8.55;1.58;;;28.10;99.90;;;;;;4994285;28;20026;-51
2023/08/05 05:30:37;;;;;;;12.95;1.90;;;28.10;99.90;;;;;;5008473;28;20455;-51
2023/08/05 05:33:03;;;;;;;13.18;1.98;;;28.10;99.90;;;;;;4994123;28;20022;-52
2023/08/05 05:35:29;;;;;;;11.63;2.70;;;28.10;99.90;;;;;;4994316;28;20386;-51
2023/08/05 05:37:55;;;;;;;7.03;2.22;;;28.10;99.90;;;;;;4993735;28;20018;-51
2023/08/05 05:40:21;;;;;;;13.75;2.55;;;28.10;99.90;;;;;;4994050;28;20421;-52
2023/08/05 05:42:49;;;;;;;8.70;1.67;;;28.10;99.90;;;;;;4993917;28;20042;-51
2023/08/05 05:45:15;;;;;;;11.35;1.60;;;28.10;99.90;;;;;;4993855;28;20022;-51
2023/08/05 05:47:41;;;;;;;9.85;2.13;;;28.10;99.90;;;;;;4993713;28;20061;-51
2023/08/05 05:50:07;;;;;;;8.43;1.88;;;28.10;99.90;;;;;;4993698;28;20046;-51
2023/08/05 05:52:34;;;;;;;11.57;2.28;;;28.10;99.90;;;;;;4993855;28;20030;-51
2023/08/05 05:55:00;;;;;;;13.35;1.90;;;28.10;99.90;;;;;;4993792;28;20419;-51
2023/08/05 05:57:26;;;;;;;11.15;2.13;;;28.10;99.90;;;;;;4993531;28;20096;-52
2023/08/05 05:59:51;;;;;;;16.17;2.15;;;28.10;99.90;;;;;;4993532;28;20078;-51
2023/08/05 06:02:17;;;;;;;9.88;2.15;;;28.10;99.90;;;;;;4993183;28;20052;-51
2023/08/05 06:04:47;;;;;;;10.27;2.28;;;28.10;99.90;;;;;;4993507;28;20062;-51
2023/08/05 06:07:13;;;;;;;11.88;2.05;;;28.10;99.90;;;;;;4993426;28;20029;-52
2023/08/05 06:09:38;;;;;;;10.40;3.38;;;28.10;99.90;;;;;;4993318;28;20208;-52
2023/08/05 06:12:05;;;;;;;8.95;1.88;;;28.10;99.90;;;;;;4993448;28;20105;-52
2023/08/05 06:14:31;;;;;;;10.32;2.72;;;28.10;99.90;;;;;;4993479;28;20109;-52
2023/08/05 06:16:57;;;;;;;8.07;2.83;;;28.10;99.90;;;;;;4993266;28;20165;-51
2023/08/05 06:19:22;;;;;;;8.57;2.33;;;28.10;99.90;;;;;;4993111;28;20363;-51
2023/08/05 06:21:48;;;;;;;10.32;2.17;;;28.10;99.90;;;;;;4993008;28;20066;-51
2023/08/05 06:24:14;;;;;;;14.30;2.00;;;28.10;99.90;;;;;;4993133;28;20108;-51
2023/08/05 06:26:40;;;;;;;11.07;1.88;;;28.10;99.90;;;;;;4992867;28;20381;-51
2023/08/05 06:29:05;;;;;;;8.07;2.15;;;28.10;99.90;;;;;;4993110;28;20038;-51
2023/08/05 06:31:31;;;;;;;11.82;1.70;;;28.10;99.90;;;;;;4993114;28;20106;-52
2023/08/05 06:33:57;;;;;;;11.82;2.70;;;28.10;99.90;;;;;;4992754;28;20022;-51
2023/08/05 06:36:23;;;;;;;8.10;1.80;;;28.20;99.90;;;;;;4992923;28;20026;-52
2023/08/05 06:38:48;;;;;;;13.95;2.53;;;28.10;99.90;;;;;;4992920;28;20382;-52
2023/08/05 06:41:14;;;;;;;11.65;2.38;;;28.20;99.90;;;;;;4992840;28;20398;-52
2023/08/05 06:43:40;;;;;;;9.35;2.50;;;28.20;99.90;;;;;;5007805;28;20034;-51
2023/08/05 06:46:06;;;;;;;9.20;3.05;;;28.20;99.90;;;;;;4992957;28;20034;-52
2023/08/05 06:48:32;;;;;;;8.98;2.25;;;28.20;99.90;;;;;;4992320;28;20033;-52
2023/08/05 06:50:58;;;;;;;13.15;5.43;;;28.20;99.90;;;;;;4992606;28;20058;-52
2023/08/05 06:53:24;;;;;;;14.07;4.00;;;28.30;99.90;;;;;;4992594;28;20034;-51
2023/08/05 06:56:03;;;;;;;12.00;3.80;;;28.30;99.90;;;;;;4992574;28;20085;-51
2023/08/05 06:58:29;;;;;;;15.23;3.75;;;28.30;99.90;;;;;;4992505;28;20022;-51
2023/08/05 07:00:55;;;;;;;7.72;2.40;;;28.30;99.90;;;;;;4992423;28;20505;-51
2023/08/05 07:03:23;;;;;;;16.17;3.30;;;28.30;99.90;;;;;;4992402;28;20038;-51
2023/08/05 07:05:49;;;;;;;19.73;6.38;;;28.30;99.90;;;;;;4992601;28;20018;-50
2023/08/05 07:08:14;;;;;;;15.52;5.32;;;28.30;99.90;;;;;;4991103;28;20054;-50
2023/08/05 07:10:40;;;;;;;10.45;3.72;;;28.40;99.90;;;;;;4992451;28;20112;-50
2023/08/05 07:13:07;;;;;;;10.93;2.80;;;28.40;99.90;;;;;;4992489;28;20093;-50
2023/08/05 07:15:39;;;;;;;10.43;4.47;;;28.40;99.90;;;;;;4992267;28;20026;-50
2023/08/05 07:18:05;;;;;;;23.00;3.47;;;28.40;99.90;;;;;;4992519;28;20133;-50
2023/08/05 07:20:31;;;;;;;10.07;4.57;;;28.50;99.90;;;;;;4992331;28;20103;-50
2023/08/05 07:22:57;;;;;;;8.80;3.03;;;28.50;99.90;;;;;;4992215;28;20119;-50
2023/08/05 07:25:22;;;;;;;13.60;3.70;;;28.50;99.90;;;;;;4992263;28;20046;-51
2023/08/05 07:27:48;;;;;;;7.30;2.35;;;28.50;99.90;;;;;;4992253;28;20578;-50
2023/08/05 07:30:14;;;;;;;8.38;2.60;;;28.60;99.90;;;;;;4992198;28;20435;-50
2023/08/05 07:32:40;;;;;;;9.15;2.95;;;28.60;99.90;;;;;;4992210;28;20105;-50
2023/08/05 07:35:07;;;;;;;7.25;2.10;;;28.60;99.90;;;;;;4990500;28;20451;-51
2023/08/05 07:37:34;;;;;;;;;;;28.60;99.90;;;;;;4991516;28;20429;-51
2023/08/05 07:40:00;;;;;;;7.28;2.50;;;28.60;99.90;;;;;;4990585;28;20414;-51
2023/08/05 07:42:27;;;;;;;11.98;3.03;;;28.70;99.90;;;;;;4992313;28;20458;-51
2023/08/05 07:44:53;;;;;;;12.52;3.42;;;28.70;99.90;;;;;;4991761;28;20109;-51
2023/08/05 07:47:19;;;;;;;10.05;2.35;;;28.70;99.90;;;;;;4992079;28;20058;-51
2023/08/05 07:49:45;;;;;;;11.30;3.05;;;28.70;99.90;;;;;;4991133;28;20028;-51
2023/08/05 07:52:11;;;;;;;8.02;2.47;;;28.70;99.90;;;;;;4992041;28;20022;-52
2023/08/05 07:54:37;;;;;;;8.43;2.90;;;28.70;99.90;;;;;;4992114;28;20057;-51
2023/08/05 07:57:03;;;;;;;9.82;2.90;;;28.70;99.90;;;;;;4991998;28;20501;-52
2023/08/05 07:59:30;;;;;;;7.93;2.38;;;28.70;99.90;;;;;;4991994;28;20386;-51
2023/08/05 08:01:57;;;;;;;9.45;2.70;;;28.80;99.90;;;;;;4994845;28;20136;-53
2023/08/05 08:04:23;;;;;;;8.40;2.75;;;28.80;99.90;;;;;;4995659;28;20022;-51
2023/08/05 08:06:48;;;;;;;9.52;3.65;;;28.80;99.90;;;;;;4995606;28;20026;-50
2023/08/05 08:09:14;;;;;;;9.02;3.72;;;28.80;99.90;;;;;;4996018;28;20023;-51
2023/08/05 08:11:40;;;;;;;9.30;2.88;;;28.80;99.90;;;;;;4995833;28;20026;-51
2023/08/05 08:14:06;;;;;;;9.32;2.22;;;28.90;99.90;;;;;;4995414;28;20482;-50
2023/08/05 08:16:32;;;;;;;6.65;2.10;;;28.90;99.90;;;;;;4995548;28;20477;-50
2023/08/05 08:18:58;;;;;;;10.20;2.72;;;28.90;99.90;;;;;;4995457;28;20431;-51
2023/08/05 08:21:24;;;;;;;8.63;2.35;;;28.90;99.90;;;;;;4995361;28;20022;-51
2023/08/05 08:23:50;;;;;;;12.70;3.22;;;28.90;99.90;;;;;;4995279;28;20109;-51
2023/08/05 08:26:16;;;;;;;12.55;3.60;;;28.90;99.90;;;;;;4995256;28;20022;-50
2023/08/05 08:28:41;;;;;;;11.25;4.85;;;28.90;99.90;;;;;;4995478;28;20058;-51
2023/08/05 08:31:07;;;;;;;13.30;3.10;;;28.90;99.90;;;;;;4995213;28;20026;-50
2023/08/05 08:33:33;;;;;;;6.60;2.72;;;29.00;99.90;;;;;;4995012;28;20104;-51
2023/08/05 08:35:59;;;;;;;8.05;2.30;;;29.00;99.90;;;;;;4995091;28;20093;-51
2023/08/05 08:38:25;;;;;;;9.82;3.95;;;29.10;99.90;;;;;;4994948;28;20026;-51
2023/08/05 08:40:52;;;;;;;15.82;3.75;;;29.00;99.90;;;;;;4995096;28;20050;-51
2023/08/05 08:43:19;;;;;;;;;;;29.10;99.90;;;;;;4994972;28;20113;-51
2023/08/05 08:45:50;;;;;;;8.10;3.53;;;29.10;99.90;;;;;;4993443;28;19968;-51
2023/08/05 08:48:16;;;;;;;9.00;2.63;;;29.10;99.90;;;;;;4994874;28;20034;-50
2023/08/05 08:50:43;;;;;;;12.25;2.35;;;29.10;99.90;;;;;;4994973;28;20102;-50
2023/08/05 08:53:12;;;;;;;6.35;2.60;;;29.10;99.90;;;;;;4994672;28;20382;-50
2023/08/05 08:55:38;;;;;;;8.02;2.20;;;29.10;99.90;;;;;;5009322;28;20037;-50
2023/08/05 08:58:04;;;;;;;10.73;2.73;;;29.10;99.90;;;;;;4994636;28;20034;-50
2023/08/05 09:00:32;;;;;;;9.95;3.42;;;29.10;99.90;;;;;;4994121;28;20268;-50
2023/08/05 09:03:00;;;;;;;14.60;3.45;;;29.10;99.90;;;;;;4993064;28;20033;-50
2023/08/05 09:05:34;;;;;;;13.25;4.32;;;29.10;99.90;;;;;;4994060;28;20057;-50
2023/08/05 09:08:02;;;;;;;8.93;5.20;;;29.20;99.90;;;;;;4991915;28;20382;-50
2023/08/05 09:10:28;;;;;;;10.32;2.75;;;29.20;99.90;;;;;;4993643;28;20486;-50
2023/08/05 09:12:57;;;;;;;17.45;5.00;;;29.20;99.90;;;;;;5007915;28;20069;-51
2023/08/05 09:15:31;;;;;;;8.02;4.65;;;29.20;99.90;;;;;;4993664;28;20014;-50
2023/08/05 09:17:58;;;;;;;9.57;2.60;;;29.20;99.90;;;;;;4993638;28;20018;-49
2023/08/05 09:20:24;;;;;;;10.90;2.35;;;29.30;99.90;;;;;;4993478;28;20028;-49
2023/08/05 09:22:59;;;;;;;11.63;2.58;;;29.30;99.90;;;;;;4993426;28;20061;-48
2023/08/05 09:25:25;;;;;;;12.00;1.98;;;29.30;99.90;;;;;;4991486;28;20033;-50
2023/08/05 09:27:52;;;;;;;8.10;2.70;;;29.30;99.90;;;;;;4993284;28;20105;-50
2023/08/05 09:30:23;;;;;;;11.82;2.17;;;29.30;99.90;;;;;;4993487;28;20347;-51
2023/08/05 09:32:49;;;;;;;6.32;1.60;;;29.30;99.90;;;;;;4993440;28;20506;-51
2023/08/05 09:35:16;;;;;;;7.32;1.90;;;29.30;99.90;;;;;;4993964;28;20081;-51
2023/08/05 09:37:49;;;;;;;9.55;2.53;;;29.40;99.90;;;;;;4993307;28;20041;-50
2023/08/05 09:40:29;;;;;;;7.93;2.47;;;29.40;99.90;;;;;;4991932;28;20033;-51
2023/08/05 09:42:59;;;;;;;8.27;2.97;;;29.40;99.90;;;;;;4986740;28;20386;-51
2023/08/05 09:45:28;;;;;;;9.90;3.78;;;29.40;99.90;;;;;;4993101;28;20482;-51
2023/08/05 09:48:15;;;;;;;10.90;2.20;;;29.50;99.90;;;;;;4991424;28;20041;-52
2023/08/05 09:50:40;;;;;;;;;;;29.40;99.90;;;;;;4993369;28;20026;-51
2023/08/05 09:53:08;;;;;;;11.90;2.40;;;29.50;99.90;;;;;;4993440;28;20293;-52
2023/08/05 09:55:37;;;;;;;12.75;3.67;;;29.50;99.90;;;;;;4993449;28;20438;-51
2023/08/05 09:58:07;;;;;;;8.48;2.50;;;29.50;99.90;;;;;;4993523;28;20534;-51
2023/08/05 10:00:36;;;;;;;7.35;2.83;;;29.50;99.90;;;;;;4993282;28;20030;-47
2023/08/05 10:03:07;;;;;;;8.25;2.40;;;29.60;99.90;;;;;;4993322;28;20030;-47
2023/08/05 10:05:34;;;;;;;9.00;2.20;;;29.60;99.90;;;;;;4993509;28;20014;-47
2023/08/05 10:08:00;;;;;;;8.07;1.90;;;29.60;99.90;;;;;;4993342;28;20026;-47
2023/08/05 10:10:29;;;;;;;7.50;2.00;;;29.60;99.90;;;;;;4993214;28;20029;-47
2023/08/05 10:13:04;;;;;;;9.55;1.92;;;29.70;99.90;;;;;;4993075;28;20046;-48
2023/08/05 10:15:32;;;;;;;14.65;4.22;;;29.70;99.90;;;;;;4992212;28;20433;-52
2023/08/05 10:17:58;;;;;;;14.07;3.15;;;29.70;99.90;;;;;;4990098;28;20032;-52
2023/08/05 10:20:24;;;;;;;9.85;2.60;;;29.80;99.90;;;;;;4991040;28;20113;-52
2023/08/05 10:23:13;;;;;;;13.07;2.75;;;29.80;99.90;;;;;;4992307;28;20039;-52
2023/08/05 10:25:43;;;;;;;9.38;2.78;;;29.80;99.90;;;;;;4990925;28;20113;-52
2023/08/05 10:28:10;;;;;;;9.30;2.95;;;29.80;99.90;;;;;;4992325;28;20027;-52
2023/08/05 10:30:43;;;;;;;10.88;3.80;;;29.80;99.90;;;;;;4990611;28;20367;-52
2023/08/05 10:33:09;;;;;;;12.23;3.25;;;29.90;99.90;;;;;;4992824;28;20029;-51
2023/08/05 10:35:42;;;;;;;11.93;3.67;;;29.90;99.90;;;;;;4990675;28;20026;-51
2023/08/05 10:38:21;;;;;;;9.45;2.88;;;30.00;99.90;;;;;;4992702;28;20382;-51
2023/08/05 10:41:02;;;;;;;12.02;5.82;;;30.00;99.90;;;;;;4990934;28;20475;-52
2023/08/05 10:43:30;;;;;;;8.23;2.40;;;30.00;99.90;;;;;;4992145;28;20053;-52
2023/08/05 10:45:57;;;;;;;6.32;1.85;;;30.00;99.90;;;;;;4990520;28;20033;-50
2023/08/05 10:48:48;;;;;;;11.13;2.35;;;30.10;99.90;;;;;;4991455;28;20096;-50
2023/08/05 10:51:18;;;;;;;8.82;4.18;;;30.10;99.90;;;;;;4979874;28;20017;-51
2023/08/05 10:54:04;;;;;;;8.93;4.90;;;30.10;99.90;;;;;;4986777;28;20023;-51
2023/08/05 10:56:31;;;;;;;15.35;9.98;;;30.10;99.90;;;;;;4983316;28;20414;-51
2023/08/05 10:59:01;;;;;;;10.02;5.55;;;30.20;99.90;;;;;;4988178;28;20034;-52
2023/08/05 11:01:56;;;;;;;9.20;3.78;;;30.10;99.90;;;;;;4986891;28;20054;-52
2023/08/05 11:04:29;;;;;;;9.20;2.47;;;30.10;99.90;;;;;;4987835;28;20434;-52
2023/08/05 11:06:56;;;;;;;4.82;2.10;;;30.20;99.90;;;;;;4987142;28;20113;-52
2023/08/05 11:09:25;;;;;;;6.72;2.50;;;30.20;99.90;;;;;;4980976;28;20027;-52
2023/08/05 11:11:51;;;;;;;7.93;2.58;;;30.20;99.90;;;;;;4987513;28;20058;-52
2023/08/05 11:14:19;;;;;;;6.88;2.88;;;30.20;99.90;;;;;;4986881;28;20066;-52
2023/08/05 11:16:45;;;;;;;;;;;30.30;99.90;;;;;;4988278;28;20102;-51
2023/08/05 11:19:12;;;;;;;6.22;3.38;;;30.30;99.90;;;;;;4988468;28;20016;-52
2023/08/05 11:21:38;;;;;;;10.80;3.55;;;30.30;99.90;;;;;;4971589;28;20035;-53
2023/08/05 11:24:04;;;;;;;5.15;1.65;;;30.40;99.90;;;;;;4972143;28;20089;-53
2023/08/05 11:26:30;;;;;;;5.80;2.60;;;30.40;99.90;;;;;;4986026;28;20035;-53
2023/08/05 11:29:03;;;;;;;8.52;2.67;;;30.40;99.90;;;;;;4987727;28;20049;-51
2023/08/05 11:31:29;;;;;;;8.45;1.98;;;30.40;99.90;;;;;;5002336;28;20026;-50
2023/08/05 11:33:55;;;;;;;11.52;2.75;;;30.50;99.90;;;;;;4988595;28;20077;-53
2023/08/05 11:36:27;;;;;;;6.65;2.00;;;30.50;99.90;;;;;;4992251;28;20107;-50
2023/08/05 11:38:57;;;;;;;8.80;2.17;;;30.50;99.90;;;;;;4976508;28;20035;-53
2023/08/05 11:41:24;;;;;;;16.10;5.60;;;30.50;99.90;;;;;;4975424;28;20042;-53
2023/08/05 11:43:50;;;;;;;5.50;2.20;;;30.50;99.90;;;;;;4975697;28;20030;-51
2023/08/05 11:46:29;;;;;;;5.20;2.25;;;30.50;99.90;;;;;;4978261;28;20564;-52
2023/08/05 11:49:12;;;;;;;7.18;2.35;;;30.50;99.90;;;;;;4991194;28;20038;-52
2023/08/05 11:51:51;;;;;;;6.97;1.45;;;30.50;99.90;;;;;;4990992;28;20541;-53
2023/08/05 11:54:26;;;;;;;4.53;1.60;;;30.50;99.90;;;;;;4991228;28;20023;-52
2023/08/05 11:56:52;;;;;;;5.90;1.48;;;30.50;99.90;;;;;;4990722;28;20034;-52
2023/08/05 11:59:38;;;;;;;6.82;1.85;;;30.50;99.90;;;;;;4992151;28;20034;-52
2023/08/05 12:02:04;;;;;;;5.65;1.95;;;30.50;99.90;;;;;;4991280;28;20149;-52
2023/08/05 12:04:30;;;;;;;6.82;1.67;;;30.50;99.90;;;;;;4984296;28;20186;-52
2023/08/05 12:06:56;;;;;;;10.10;2.60;;;30.60;99.90;;;;;;4990993;28;20037;-52
2023/08/05 12:09:22;;;;;;;5.85;3.10;;;30.60;99.90;;;;;;4992614;28;20032;-52
2023/08/05 12:11:54;;;;;;;5.72;2.88;;;30.60;99.90;;;;;;4991063;28;20157;-52
2023/08/05 12:14:20;;;;;;;6.35;2.88;;;30.60;99.90;;;;;;5003073;28;20183;-50
2023/08/05 12:16:47;;;;;;;5.93;2.90;;;30.70;99.90;;;;;;4988112;28;20117;-52
2023/08/05 12:19:14;;;;;;;4.45;2.28;;;30.70;99.90;;;;;;4982391;28;20493;-51
2023/08/05 12:21:40;;;;;;;4.80;2.10;;;30.80;99.90;;;;;;4984204;28;20035;-52
2023/08/05 12:24:06;;;;;;;8.77;3.28;;;30.80;99.90;;;;;;4989953;28;20039;-52
2023/08/05 12:26:32;;;;;;;9.82;6.10;;;30.80;99.90;;;;;;4991092;28;20030;-51
2023/08/05 12:28:57;;;;;;;9.43;4.65;;;30.80;99.90;;;;;;4991360;28;20041;-52
2023/08/05 12:31:23;;;;;;;9.07;3.53;;;30.80;99.90;;;;;;4990780;28;20022;-52
2023/08/05 12:33:49;;;;;;;7.90;3.10;;;30.80;99.90;;;;;;4989129;28;20035;-52
2023/08/05 12:36:15;;;;;;;12.23;3.63;;;30.80;99.90;;;;;;4982736;28;20034;-52
2023/08/05 12:38:40;;;;;;;10.30;3.10;;;30.80;99.90;;;;;;4990837;28;20030;-53
2023/08/05 12:41:06;;;;;;;6.32;2.72;;;30.80;99.90;;;;;;4997393;28;20026;-52
2023/08/05 12:43:32;;;;;;;9.57;2.83;;;30.80;99.90;;;;;;4990812;28;20430;-53